Time;durP1;ratioP1;P1;durP2;ratioP2;P2;SDS_P1;SDS_P2;PMS_P1;PMS_P2;Temp;Humidity;BMP_temperature;BMP_pressure;BME280_temperature;BME280_humidity;BME280_pressure;Samples;Min_cycle;Max_cycle;Signal;HPM_P1;HPM_P2
2021/11/26 00:02:17;;;;;;;28.80;16.67;;;;;;;-2.08;98.88;100756.13;1773792;81;21304;-76
2021/11/26 00:05:23;;;;;;;32.38;16.80;;;;;;;-2.07;99.05;100752.97;1772805;81;21161;-76
2021/11/26 00:08:30;;;;;;;28.92;16.42;;;;;;;-2.09;99.23;100754.41;1771251;81;21253;-77
2021/11/26 00:11:37;;;;;;;26.90;16.00;;;;;;;-2.10;99.46;100744.64;1771974;81;21740;-76
2021/11/26 00:18:17;;;;;;;32.63;17.90;;;;;;;-2.10;99.75;100735.73;1771264;81;21185;-77
2021/11/26 00:21:15;;;;;;;29.65;17.92;;;;;;;-2.08;99.93;100742.73;1772196;81;21320;-77
2021/11/26 00:24:20;;;;;;;35.05;17.77;;;;;;;-2.08;100.00;100733.83;1773589;81;21681;-77
2021/11/26 00:27:26;;;;;;;32.85;16.00;;;;;;;-2.06;100.00;100737.30;1772882;81;21303;-77
2021/11/26 00:30:32;;;;;;;29.52;16.55;;;;;;;-2.09;100.00;100729.42;1772904;81;21220;-77
2021/11/26 00:33:37;;;;;;;25.65;15.13;;;;;;;-2.08;100.00;100732.00;1772878;81;21295;-77
2021/11/26 00:36:43;;;;;;;25.02;15.20;;;;;;;-2.08;100.00;100715.06;1772638;81;21359;-76
2021/11/26 00:39:49;;;;;;;24.90;15.70;;;;;;;-2.07;100.00;100708.73;1771413;81;21383;-76
2021/11/26 00:42:56;;;;;;;25.55;15.60;;;;;;;-2.07;100.00;100714.10;1771130;81;21180;-76
2021/11/26 00:46:02;;;;;;;33.13;18.10;;;;;;;-2.07;100.00;100704.72;1772834;81;21224;-76
2021/11/26 00:49:09;;;;;;;27.02;16.25;;;;;;;-2.11;100.00;100694.67;1771397;81;21240;-76
2021/11/26 00:52:14;;;;;;;25.68;16.05;;;;;;;-2.13;100.00;100695.22;1771147;81;21248;-76
2021/11/26 00:55:20;;;;;;;26.12;15.80;;;;;;;-2.17;100.00;100682.93;1772774;81;21310;-76
2021/11/26 00:58:26;;;;;;;26.77;15.83;;;;;;;-2.18;100.00;100678.53;1772686;81;21339;-76
2021/11/26 01:01:32;;;;;;;27.02;15.90;;;;;;;-2.19;100.00;100675.95;1772404;81;21181;-76
2021/11/26 01:04:38;;;;;;;33.30;18.05;;;;;;;-2.20;100.00;100666.19;1772762;81;21355;-76
2021/11/26 01:07:44;;;;;;;28.38;16.85;;;;;;;-2.20;100.00;100669.72;1772883;81;21350;-77
2021/11/26 01:10:49;;;;;;;27.48;15.65;;;;;;;-2.22;100.00;100664.05;1772713;81;21343;-78
2021/11/26 01:13:56;;;;;;;34.75;17.40;;;;;;;-2.24;100.00;100653.91;1772820;81;21310;-78
2021/11/26 01:17:02;;;;;;;34.90;18.95;;;;;;;-2.28;100.00;100652.34;1767316;80;21375;-78
2021/11/26 01:20:12;;;;;;;32.23;19.77;;;;;;;-2.30;100.00;100647.56;1764658;81;21820;-79
2021/11/26 01:23:17;;;;;;;48.00;25.55;;;;;;;-2.35;100.00;100646.00;1763096;81;21855;-78
2021/11/26 01:26:23;;;;;;;49.55;22.42;;;;;;;-2.37;100.00;100640.32;1764504;81;21307;-78
2021/11/26 01:29:28;;;;;;;42.48;21.57;;;;;;;-2.39;100.00;100637.74;1764454;81;21300;-78
2021/11/26 01:32:34;;;;;;;39.35;20.75;;;;;;;-2.41;100.00;100635.61;1763255;81;21847;-78
2021/11/26 01:35:40;;;;;;;39.60;22.85;;;;;;;-2.44;100.00;100637.61;1764707;81;21392;-77
2021/11/26 01:38:45;;;;;;;37.33;22.30;;;;;;;-2.47;100.00;100636.44;1764582;81;21296;-78
2021/11/26 01:41:52;;;;;;;41.33;21.35;;;;;;;-2.50;100.00;100632.09;1764707;81;21324;-77
2021/11/26 01:44:57;;;;;;;44.15;22.70;;;;;;;-2.50;100.00;100630.76;1764353;81;21962;-77
2021/11/26 01:48:04;;;;;;;38.35;20.48;;;;;;;-2.49;100.00;100623.58;1763031;81;21181;-77
2021/11/26 01:51:10;;;;;;;39.30;21.75;;;;;;;-2.45;100.00;100627.83;1764497;81;21363;-77
2021/11/26 01:54:17;;;;;;;41.88;24.90;;;;;;;-2.44;100.00;100621.55;1764510;81;21197;-77
2021/11/26 01:57:25;;;;;;;37.85;23.00;;;;;;;-2.42;100.00;100622.30;1764562;81;21248;-77
2021/11/26 02:00:33;;;;;;;43.23;25.08;;;;;;;-2.43;100.00;100616.56;1764288;81;21331;-77
2021/11/26 02:03:39;;;;;;;35.60;22.17;;;;;;;-2.47;100.00;100619.02;1763340;81;21866;-77
2021/11/26 02:06:45;;;;;;;43.00;19.52;;;;;;;-2.50;100.00;100621.38;1764546;81;21931;-77
2021/11/26 02:09:52;;;;;;;45.50;20.97;;;;;;;-2.50;100.00;100613.34;1763276;81;21743;-77
2021/11/26 02:13:00;;;;;;;36.60;20.62;;;;;;;-2.54;100.00;100609.14;1763786;81;21399;-78
2021/11/26 02:16:07;;;;;;;38.90;19.85;;;;;;;-2.59;100.00;100610.73;1764128;81;21788;-78
2021/11/26 02:19:15;;;;;;;34.92;20.77;;;;;;;-2.61;100.00;100619.79;1777687;80;21723;-79
2021/11/26 02:22:22;;;;;;;30.08;19.50;;;;;;;-2.61;100.00;100616.63;1778364;80;21185;-78
2021/11/26 02:25:28;;;;;;;34.10;21.05;;;;;;;-2.63;100.00;100605.63;1778444;80;21721;-79
2021/11/26 02:28:33;;;;;;;35.23;19.92;;;;;;;-2.67;100.00;100607.61;1776877;80;21184;-77
2021/11/26 02:31:39;;;;;;;33.38;19.30;;;;;;;-2.68;100.00;100604.99;1777078;80;21323;-77
2021/11/26 02:34:45;;;;;;;33.35;19.23;;;;;;;-2.71;100.00;100607.38;1778421;80;21906;-77
2021/11/26 02:37:50;;;;;;;33.35;18.62;;;;;;;-2.71;100.00;100606.52;1778330;80;21307;-77
2021/11/26 02:40:56;;;;;;;31.97;18.02;;;;;;;-2.69;100.00;100612.16;1778436;80;21300;-78
2021/11/26 02:44:03;;;;;;;30.85;16.95;;;;;;;-2.67;100.00;100610.77;1777323;80;21196;-77
2021/11/26 02:47:09;;;;;;;30.43;18.00;;;;;;;-2.67;100.00;100614.78;1777936;80;21848;-77
2021/11/26 02:50:15;;;;;;;30.60;17.15;;;;;;;-2.69;100.00;100605.95;1777067;80;21307;-77
2021/11/26 02:53:21;;;;;;;33.13;18.60;;;;;;;-2.69;100.00;100605.95;1778148;80;21363;-77
2021/11/26 02:56:26;;;;;;;30.70;18.25;;;;;;;-2.70;100.00;100606.91;1779663;80;21271;-77
2021/11/26 02:59:32;;;;;;;31.25;17.05;;;;;;;-2.69;100.00;100604.61;1779488;80;21685;-77
2021/11/26 03:02:38;;;;;;;33.67;17.82;;;;;;;-2.66;100.00;100601.78;1777303;80;21779;-77
2021/11/26 03:05:44;;;;;;;29.15;17.77;;;;;;;-2.64;100.00;100603.88;1778634;80;21346;-77
2021/11/26 03:08:49;;;;;;;26.45;15.63;;;;;;;-2.63;100.00;100601.61;1778501;80;21744;-78
2021/11/26 03:11:55;;;;;;;28.75;16.62;;;;;;;-2.61;100.00;100593.87;1777070;80;21786;-77
2021/11/26 03:15:01;;;;;;;35.23;18.55;;;;;;;-2.60;100.00;100598.74;1777153;80;21240;-76
2021/11/26 03:18:08;;;;;;;32.83;18.62;;;;;;;-2.59;100.00;100598.69;1776040;80;21338;-77
2021/11/26 03:21:14;;;;;;;33.67;18.10;;;;;;;-2.59;100.00;100593.77;1763369;81;21257;-77
2021/11/26 03:24:20;;;;;;;36.90;19.60;;;;;;;-2.59;100.00;100569.22;1763226;81;21858;-76
2021/11/26 03:27:26;;;;;;;41.80;22.25;;;;;;;-2.57;100.00;100569.13;1763174;81;21248;-77
2021/11/26 03:30:32;;;;;;;34.78;19.25;;;;;;;-2.60;100.00;100563.92;1764475;81;21852;-77
2021/11/26 03:33:38;;;;;;;36.90;19.62;;;;;;;-2.61;100.00;100563.55;1763156;81;21316;-77
2021/11/26 03:36:44;;;;;;;33.35;19.02;;;;;;;-2.58;100.00;100571.42;1764739;81;21360;-77
2021/11/26 03:39:50;;;;;;;35.92;20.05;;;;;;;-2.56;100.00;100569.50;1763319;81;21173;-77
2021/11/26 03:42:55;;;;;;;31.77;18.73;;;;;;;-2.60;100.00;100567.47;1763355;81;21736;-77
2021/11/26 03:46:01;;;;;;;28.57;18.07;;;;;;;-2.66;100.00;100561.12;1764563;81;21288;-78
2021/11/26 03:49:07;;;;;;;29.57;16.65;;;;;;;-2.73;100.00;100554.84;1764694;81;21173;-77
2021/11/26 03:52:13;;;;;;;32.85;17.60;;;;;;;-2.74;100.00;100553.98;1764575;81;21308;-77
2021/11/26 03:55:27;;;;;;;28.52;17.00;;;;;;;-2.75;100.00;100548.73;1763629;81;21339;-77
2021/11/26 03:58:33;;;;;;;28.23;16.32;;;;;;;-2.72;100.00;100555.27;1765097;81;21539;-77
2021/11/26 04:01:39;;;;;;;32.85;17.70;;;;;;;-2.70;100.00;100555.55;1764596;81;21304;-77
2021/11/26 04:04:46;;;;;;;32.70;18.73;;;;;;;-2.66;100.00;100555.77;1763950;81;21300;-76
2021/11/26 04:07:52;;;;;;;31.93;17.20;;;;;;;-2.63;100.00;100548.91;1764653;81;21169;-76
2021/11/26 04:10:58;;;;;;;29.20;16.45;;;;;;;-2.60;100.00;100542.02;1763265;81;21188;-77
2021/11/26 04:14:04;;;;;;;29.07;16.73;;;;;;;-2.54;100.00;100536.82;1763028;81;21214;-77
2021/11/26 04:17:11;;;;;;;28.27;17.27;;;;;;;-2.52;100.00;100519.31;1756203;81;21277;-76
2021/11/26 04:20:17;;;;;;;33.48;17.45;;;;;;;-2.54;100.00;100519.86;1725727;82;21225;-76
2021/11/26 04:23:22;;;;;;;28.83;17.45;;;;;;;-2.57;100.00;100528.47;1749171;82;21716;-76
2021/11/26 04:26:28;;;;;;;31.90;18.17;;;;;;;-2.56;100.00;100538.70;1716384;82;21906;-76
2021/11/26 04:29:34;;;;;;;31.48;18.40;;;;;;;-2.58;100.00;100531.25;1715194;83;21359;-76
2021/11/26 04:32:39;;;;;;;33.38;18.50;;;;;;;-2.57;100.00;100543.68;1713962;83;21232;-76
2021/11/26 04:35:45;;;;;;;29.82;16.15;;;;;;;-2.55;100.00;100550.28;1714881;82;21225;-76
2021/11/26 04:38:51;;;;;;;31.23;18.35;;;;;;;-2.54;100.00;100556.91;1727212;83;21253;-77
2021/11/26 04:41:56;;;;;;;28.83;17.40;;;;;;;-2.51;100.00;100556.71;1748601;82;21356;-78
2021/11/26 04:45:02;;;;;;;29.37;17.70;;;;;;;-2.47;100.00;100560.09;1728100;83;21230;-78
2021/11/26 04:48:08;;;;;;;28.17;15.75;;;;;;;-2.44;100.00;100556.77;1748591;82;21418;-78
2021/11/26 04:51:15;;;;;;;29.42;16.70;;;;;;;-2.43;100.00;100558.48;1728537;83;21245;-78
2021/11/26 04:54:21;;;;;;;29.57;17.80;;;;;;;-2.45;100.00;100564.39;1748627;82;21235;-78
2021/11/26 04:57:27;;;;;;;26.93;15.70;;;;;;;-2.47;100.00;100571.66;1736281;82;21184;-78
2021/11/26 05:00:32;;;;;;;31.55;19.17;;;;;;;-2.47;100.00;100569.46;1742207;82;21309;-78
2021/11/26 05:03:38;;;;;;;31.80;16.45;;;;;;;-2.44;100.00;100571.50;1768965;81;21261;-78
2021/11/26 05:06:46;;;;;;;33.55;17.25;;;;;;;-2.44;100.00;100566.14;1784368;79;21162;-76
2021/11/26 05:09:53;;;;;;;27.55;17.07;;;;;;;-2.42;100.00;100563.37;1735377;82;21763;-76
2021/11/26 05:12:59;;;;;;;29.85;17.23;;;;;;;-2.41;100.00;100569.11;1754802;81;21735;-76
2021/11/26 05:16:05;;;;;;;34.40;18.92;;;;;;;-2.42;100.00;100564.23;1725833;83;21926;-77
2021/11/26 05:19:13;;;;;;;26.27;15.45;;;;;;;-2.37;100.00;100571.52;1726633;83;21339;-77
2021/11/26 05:22:19;;;;;;;27.90;15.58;;;;;;;-2.35;100.00;100572.31;1721188;82;21342;-77
2021/11/26 05:25:23;;;;;;;29.12;16.80;;;;;;;-2.32;100.00;100577.95;1736006;82;21360;-77
2021/11/26 05:28:29;;;;;;;32.45;17.05;;;;;;;-2.30;100.00;100572.05;1744524;80;21173;-77
2021/11/26 05:31:36;;;;;;;35.80;19.25;;;;;;;-2.25;100.00;100573.13;1731363;81;21343;-77
2021/11/26 05:34:41;;;;;;;29.37;17.67;;;;;;;-2.25;100.00;100579.34;1773026;79;21340;-77
2021/11/26 05:37:47;;;;;;;30.00;18.37;;;;;;;-2.24;100.00;100579.73;1797541;79;21142;-76
2021/11/26 05:40:54;;;;;;;31.75;18.48;;;;;;;-2.20;100.00;100571.91;1789721;78;21264;-77
2021/11/26 05:43:59;;;;;;;36.58;20.17;;;;;;;-2.12;100.00;100579.03;1782639;78;21793;-79
2021/11/26 05:47:05;;;;;;;34.92;17.25;;;;;;;-2.02;100.00;100574.45;1785451;78;21307;-77
2021/11/26 05:50:14;;;;;;;38.83;20.12;;;;;;;-1.92;100.00;100575.18;1793166;78;21326;-77
2021/11/26 05:53:23;;;;;;;38.67;19.45;;;;;;;-1.81;100.00;100566.01;1786200;78;21304;-77
2021/11/26 05:56:29;;;;;;;38.23;18.55;;;;;;;-1.70;100.00;100567.18;1791705;78;22290;-78
2021/11/26 05:59:34;;;;;;;35.95;21.68;;;;;;;-1.64;100.00;100573.54;1785557;78;21622;-77
2021/11/26 06:02:40;;;;;;;32.67;19.23;;;;;;;-1.59;100.00;100572.78;1793650;78;21346;-77
2021/11/26 06:05:47;;;;;;;35.88;20.60;;;;;;;-1.50;100.00;100575.39;1783765;78;21787;-77
2021/11/26 06:08:52;;;;;;;34.90;20.35;;;;;;;-1.44;100.00;100574.53;1795917;78;21263;-76
2021/11/26 06:11:59;;;;;;;37.53;21.35;;;;;;;-1.34;100.00;100585.56;1717930;81;21228;-77
2021/11/26 06:15:07;;;;;;;34.00;18.40;;;;;;;-1.24;100.00;100585.86;1784249;78;21320;-78
2021/11/26 06:18:12;;;;;;;33.73;19.57;;;;;;;-1.13;100.00;100576.66;1789463;78;21219;-77
2021/11/26 06:21:18;;;;;;;35.25;20.37;;;;;;;-1.01;100.00;100581.27;1789644;78;21740;-78
2021/11/26 06:24:24;;;;;;;33.92;20.20;;;;;;;-0.92;100.00;100588.75;1701595;82;21358;-77
2021/11/26 06:27:29;;;;;;;34.95;21.23;;;;;;;-0.81;100.00;100593.44;1708412;82;22304;-79
2021/11/26 06:30:35;;;;;;;36.20;19.65;;;;;;;-0.70;100.00;100596.81;1716694;81;21213;-79
2021/11/26 06:33:41;;;;;;;29.67;17.77;;;;;;;-0.61;100.00;100590.81;1728396;81;22413;-77
2021/11/26 06:36:47;;;;;;;37.28;20.85;;;;;;;-0.50;100.00;100597.73;1722679;81;21224;-79
2021/11/26 06:39:53;;;;;;;31.42;19.80;;;;;;;-0.43;100.00;100588.29;1730932;81;21193;-79
2021/11/26 06:43:01;;;;;;;37.73;21.12;;;;;;;-0.35;100.00;100584.62;1704162;82;21334;-77
2021/11/26 06:46:07;;;;;;;33.13;19.57;;;;;;;-0.32;100.00;100583.59;1722532;82;21342;-77
2021/11/26 06:49:12;;;;;;;31.40;18.92;;;;;;;-0.30;100.00;100575.78;1714163;82;21205;-77
2021/11/26 06:52:17;;;;;;;31.65;19.65;;;;;;;-0.22;100.00;100580.67;1702848;82;21303;-77
2021/11/26 06:55:24;;;;;;;30.52;19.05;;;;;;;-0.16;100.00;100584.28;1712920;81;21330;-77
2021/11/26 06:58:30;;;;;;;35.78;21.12;;;;;;;-0.09;100.00;100574.01;1711846;82;22514;-79
2021/11/26 07:01:36;;;;;;;36.40;21.33;;;;;;;-0.04;100.00;100568.70;1710907;82;21863;-78
2021/11/26 07:04:43;;;;;;;33.02;20.37;;;;;;;0.02;100.00;100571.45;1706752;82;21221;-79
2021/11/26 07:07:50;;;;;;;34.75;21.57;;;;;;;0.11;100.00;100566.80;1712157;82;21339;-78
2021/11/26 07:10:55;;;;;;;30.20;19.10;;;;;;;0.19;100.00;100563.12;1711940;82;21673;-79
2021/11/26 07:14:02;;;;;;;38.28;20.55;;;;;;;0.30;100.00;100555.66;1703686;82;21381;-78
2021/11/26 07:17:09;;;;;;;32.93;19.85;;;;;;;0.37;100.00;100546.66;1705156;82;21625;-78
2021/11/26 07:20:16;;;;;;;34.60;19.95;;;;;;;0.46;100.00;100553.61;1709130;81;21228;-79
2021/11/26 07:23:23;;;;;;;37.85;20.72;;;;;;;0.55;100.00;100563.38;1713997;80;21372;-77
2021/11/26 07:26:30;;;;;;;33.48;21.27;;;;;;;0.67;100.00;100564.74;1724125;81;21342;-79
2021/11/26 07:29:37;;;;;;;30.02;18.77;;;;;;;0.80;100.00;100557.13;1747642;79;21333;-77
2021/11/26 07:32:46;;;;;;;35.55;20.77;;;;;;;0.89;100.00;100561.38;1722924;81;21246;-78
2021/11/26 11:55:33;;;;;;;49.35;29.48;;;;;;;3.76;94.26;100308.42;1798101;77;28211;-78
2021/11/26 11:58:41;;;;;;;54.60;30.40;;;;;;;3.76;93.63;100305.72;1756853;80;21369;-78
2021/11/26 12:01:50;;;;;;;45.00;29.70;;;;;;;3.67;93.38;100301.59;1761629;81;21331;-79
2021/11/26 12:04:56;;;;;;;51.98;31.20;;;;;;;3.58;93.59;100301.92;1756265;80;21267;-78
2021/11/26 12:08:18;;;;;;;60.78;33.00;;;;;;;3.50;93.96;100303.92;1757050;81;21339;-84
2021/11/26 12:11:39;;;;;;;53.73;29.63;;;;;;;3.47;94.28;100303.31;1755972;81;21203;-84
2021/11/26 12:15:01;;;;;;;59.67;34.80;;;;;;;3.46;94.53;100296.20;1756754;80;21343;-77
2021/11/26 12:18:12;;;;;;;71.17;40.23;;;;;;;3.42;94.75;100292.89;1757411;81;21322;-83
2021/11/26 12:21:16;;;;;;;63.30;36.10;;;;;;;3.41;95.10;100299.79;1757502;81;21295;-81
2021/11/26 12:24:27;;;;;;;80.05;42.73;;;;;;;3.41;95.21;100294.38;1798221;79;21168;-76
2021/11/26 12:27:39;;;;;;;68.28;39.53;;;;;;;3.40;95.19;100289.47;1749092;80;21274;-77
2021/11/26 12:30:42;;;;;;;53.63;33.05;;;;;;;3.41;95.11;100282.22;1779157;79;21242;-78
2021/11/26 12:33:51;;;;;;;59.48;33.95;;;;;;;3.42;94.97;100284.78;1780807;79;21887;-82
2021/11/26 12:37:03;;;;;;;60.75;35.73;;;;;;;3.41;95.07;100283.56;1780823;80;21302;-79
2021/11/26 12:40:13;;;;;;;55.17;31.40;;;;;;;3.42;95.17;100282.57;1780233;79;21179;-79
2021/11/26 12:43:18;;;;;;;54.83;31.65;;;;;;;3.41;95.23;100279.02;1781319;80;21333;-78
2021/11/26 12:46:34;;;;;;;55.08;30.15;;;;;;;3.42;95.36;100286.62;1781224;80;21274;-78
2021/11/26 12:52:46;;;;;;;57.27;31.40;;;;;;;3.47;95.76;100270.36;1780415;80;21295;-77
2021/11/26 12:55:57;;;;;;;54.40;33.25;;;;;;;3.48;95.69;100260.41;1780698;80;21680;-82
2021/11/26 12:59:03;;;;;;;59.83;33.20;;;;;;;3.47;95.68;100251.44;1779986;79;21304;-83
2021/11/26 13:02:10;;;;;;;70.22;40.50;;;;;;;3.49;95.64;100248.13;1779098;80;21748;-78
2021/11/26 13:05:19;;;;;;;78.52;41.42;;;;;;;3.47;95.60;100234.36;1779641;79;21326;-84
2021/11/26 13:08:25;;;;;;;60.23;35.58;;;;;;;3.45;95.63;100235.00;1779438;79;21214;-77
2021/11/26 13:11:30;;;;;;;54.93;34.78;;;;;;;3.42;95.60;100239.30;1780556;80;21180;-83
2021/11/26 13:14:35;;;;;;;54.98;34.23;;;;;;;3.36;95.61;100231.23;1779059;79;21342;-79
2021/11/26 13:17:48;;;;;;;57.60;30.35;;;;;;;3.33;95.66;100235.55;1780526;80;21289;-83
2021/11/26 13:21:07;;;;;;;51.00;33.92;;;;;;;3.29;95.78;100234.97;1780058;80;21357;-83
2021/11/26 13:24:14;;;;;;;56.37;29.23;;;;;;;3.28;95.72;100233.23;1779020;79;21286;-83
2021/11/26 13:27:20;;;;;;;51.55;29.87;;;;;;;3.23;95.67;100228.72;1779152;80;21838;-83
2021/11/26 13:30:31;;;;;;;52.45;31.85;;;;;;;3.21;95.62;100232.06;1779266;79;21298;-78
2021/11/26 13:33:41;;;;;;;44.48;25.60;;;;;;;3.20;95.61;100238.46;1780758;79;21762;-78
2021/11/26 13:36:46;;;;;;;65.03;39.45;;;;;;;3.19;95.52;100227.76;1780738;80;21282;-83
2021/11/26 13:40:04;;;;;;;58.70;36.68;;;;;;;3.15;95.24;100223.10;1779762;79;21306;-78
2021/11/26 13:43:08;;;;;;;55.10;31.42;;;;;;;3.09;95.10;100223.63;1758886;80;21291;-83
2021/11/26 13:46:32;;;;;;;51.18;30.27;;;;;;;3.04;95.18;100219.12;1779387;80;21377;-78
2021/11/26 13:49:38;;;;;;;43.78;27.17;;;;;;;2.99;95.22;100227.61;1780572;79;21290;-83
2021/11/26 13:52:44;;;;;;;38.45;24.25;;;;;;;2.95;95.53;100222.10;1780325;80;21148;-83
2021/11/26 13:55:50;;;;;;;44.90;27.32;;;;;;;2.94;95.92;100226.30;1779296;80;21882;-83
2021/11/26 13:59:04;;;;;;;49.65;27.35;;;;;;;2.94;96.36;100227.14;1780386;79;21322;-78
2021/11/26 14:02:22;;;;;;;44.80;25.57;;;;;;;2.96;96.77;100221.11;1779671;80;21775;-83
2021/11/26 14:05:40;;;;;;;59.30;35.98;;;;;;;2.97;97.30;100220.64;1779365;79;21247;-78
2021/11/26 14:08:56;;;;;;;47.45;29.02;;;;;;;2.97;97.92;100212.04;1780090;79;21787;-78
2021/11/26 14:12:03;;;;;;;51.70;30.02;;;;;;;2.99;98.35;100213.25;1779169;80;21175;-83
2021/11/26 14:15:10;;;;;;;51.92;30.02;;;;;;;2.99;98.74;100210.05;1779141;79;21195;-84
2021/11/26 14:18:23;;;;;;;65.35;38.70;;;;;;;3.01;98.99;100213.50;1779186;80;21227;-82
2021/11/26 14:21:28;;;;;;;64.65;37.90;;;;;;;3.00;99.05;100202.30;1780826;80;21279;-83
2021/11/26 14:24:47;;;;;;;57.62;31.65;;;;;;;2.99;99.00;100194.33;1779070;79;21298;-78
2021/11/26 14:27:58;;;;;;;60.08;34.95;;;;;;;2.95;98.97;100203.19;1779093;80;21708;-83
2021/11/26 14:31:12;;;;;;;71.77;38.83;;;;;;;2.92;99.10;100194.51;1780821;80;21266;-83
2021/11/26 14:34:21;;;;;;;89.28;48.00;;;;;;;2.87;99.14;100189.95;1780157;79;21286;-78
2021/11/26 14:37:27;;;;;;;64.95;36.85;;;;;;;2.80;99.33;100181.03;1779395;80;21283;-78
2021/11/26 14:40:35;;;;;;;62.13;34.25;;;;;;;2.75;99.52;100172.96;1779315;79;21161;-78
2021/11/26 14:43:40;;;;;;;93.30;45.52;;;;;;;2.69;99.80;100160.84;1780730;79;21353;-83
2021/11/26 14:47:02;;;;;;;96.08;45.52;;;;;;;2.66;100.00;100169.19;1780133;80;21831;-78
2021/11/26 14:50:07;;;;;;;118.93;59.53;;;;;;;2.64;100.00;100167.62;1780775;79;21301;-83
2021/11/26 14:53:23;;;;;;;85.83;41.30;;;;;;;2.65;100.00;100167.98;1780542;80;21159;-83
2021/11/26 14:56:29;;;;;;;127.38;63.15;;;;;;;2.65;100.00;100167.48;1779788;80;21473;-83
2021/11/26 14:59:35;;;;;;;79.58;42.48;;;;;;;2.65;100.00;100172.87;1779167;79;21294;-83
2021/11/26 15:02:41;;;;;;;93.80;45.17;;;;;;;2.65;100.00;100170.18;1780527;80;21152;-78
2021/11/26 15:05:48;;;;;;;86.05;45.15;;;;;;;2.65;100.00;100166.13;1780378;80;21192;-83
2021/11/26 15:08:55;;;;;;;86.65;43.87;;;;;;;2.64;100.00;100167.13;1778773;79;21314;-78
2021/11/26 15:12:02;;;;;;;95.90;46.08;;;;;;;2.66;100.00;100193.98;1780588;80;21156;-78
2021/11/26 15:15:10;;;;;;;86.02;42.38;;;;;;;2.67;100.00;100197.05;1779579;79;21302;-79
2021/11/26 15:18:16;;;;;;;68.20;36.83;;;;;;;2.67;100.00;100199.25;1779064;80;21334;-79
2021/11/26 15:21:21;;;;;;;96.95;47.67;;;;;;;2.68;100.00;100196.94;1780746;80;21286;-83
2021/11/26 15:24:27;;;;;;;68.20;36.70;;;;;;;2.70;100.00;100188.70;1780680;79;21318;-83
2021/11/26 15:27:32;;;;;;;71.40;36.50;;;;;;;2.69;100.00;100174.84;1779222;80;21334;-79
2021/11/26 15:30:38;;;;;;;60.50;34.25;;;;;;;2.68;100.00;100166.34;1780632;79;21314;-79
2021/11/26 15:33:44;;;;;;;58.10;32.13;;;;;;;2.65;100.00;100167.48;1780389;79;21294;-82
2021/11/26 15:36:50;;;;;;;62.85;31.80;;;;;;;2.66;100.00;100184.53;1779857;80;21283;-77
2021/11/26 15:39:58;;;;;;;56.48;30.77;;;;;;;2.64;100.00;100186.52;1779793;79;21306;-77
2021/11/26 15:43:02;;;;;;;57.15;30.52;;;;;;;2.63;100.00;100182.08;1780619;80;21676;-78
2021/11/26 15:46:07;;;;;;;60.25;30.90;;;;;;;2.63;100.00;100186.98;1780561;80;21823;-83
2021/11/26 15:49:12;;;;;;;49.63;28.12;;;;;;;2.63;100.00;100172.63;1780129;79;21850;-78
2021/11/26 15:52:18;;;;;;;50.45;26.27;;;;;;;2.61;100.00;100169.22;1780444;80;21152;-83
2021/11/26 15:55:24;;;;;;;52.33;26.90;;;;;;;2.61;100.00;100168.72;1779566;79;21858;-83
2021/11/26 15:58:30;;;;;;;49.35;27.87;;;;;;;2.56;100.00;100158.80;1780302;79;21274;-78
2021/11/26 16:01:36;;;;;;;42.45;25.20;;;;;;;2.53;100.00;100161.75;1780696;80;21274;-78
2021/11/26 16:04:42;;;;;;;48.10;26.87;;;;;;;2.53;100.00;100165.30;1778802;79;21329;-83
2021/11/26 16:07:48;;;;;;;42.73;24.75;;;;;;;2.52;100.00;100154.64;1778994;80;21250;-78
2021/11/26 16:10:55;;;;;;;40.55;23.15;;;;;;;2.48;100.00;100164.83;1779704;80;21823;-78
2021/11/26 16:14:00;;;;;;;44.10;25.85;;;;;;;2.45;100.00;100172.35;1780276;79;21219;-79
2021/11/26 16:17:05;;;;;;;45.63;26.55;;;;;;;2.42;100.00;100167.20;1780125;80;21246;-83
2021/11/26 16:20:13;;;;;;;44.50;24.80;;;;;;;2.39;100.00;100170.14;1779189;79;21203;-78
2021/11/26 16:23:18;;;;;;;49.58;26.93;;;;;;;2.37;100.00;100154.08;1780599;80;21140;-84
2021/11/26 16:26:25;;;;;;;45.00;24.77;;;;;;;2.35;100.00;100156.53;1778836;80;21802;-82
2021/11/26 16:29:30;;;;;;;45.83;26.82;;;;;;;2.30;100.00;100142.06;1785451;79;21341;-77
2021/11/26 16:35:50;;;;;;;45.45;26.17;;;;;;;2.25;100.00;100132.14;1786103;80;21809;-78
2021/11/26 16:38:55;;;;;;;45.67;25.25;;;;;;;2.21;100.00;100119.42;1785921;79;21301;-78
2021/11/26 16:42:01;;;;;;;43.05;26.10;;;;;;;2.18;100.00;100125.06;1785217;80;21215;-83
2021/11/26 16:45:06;;;;;;;46.53;25.72;;;;;;;2.16;100.00;100118.92;1785150;79;21211;-78
2021/11/26 16:48:12;;;;;;;53.13;29.67;;;;;;;2.13;100.00;100113.80;1785343;80;21345;-78
2021/11/26 16:51:18;;;;;;;49.58;29.10;;;;;;;2.08;100.00;100116.02;1786186;80;21278;-83
2021/11/26 16:54:24;;;;;;;50.03;28.87;;;;;;;2.04;100.00;100103.27;1785633;79;21311;-83
2021/11/26 16:57:33;;;;;;;51.20;28.90;;;;;;;2.00;100.00;100105.85;1785872;80;21353;-83
2021/11/26 17:00:39;;;;;;;45.73;27.82;;;;;;;1.99;100.00;100098.75;1784805;79;21350;-82
2021/11/26 17:03:47;;;;;;;46.65;27.30;;;;;;;1.99;100.00;100091.16;1786061;79;21302;-82
2021/11/26 17:06:55;;;;;;;51.37;28.52;;;;;;;1.99;100.00;100092.50;1784672;80;21346;-77
2021/11/26 17:10:03;;;;;;;50.45;27.05;;;;;;;1.97;100.00;100085.01;1785120;79;21467;-78
2021/11/26 17:13:09;;;;;;;47.67;28.73;;;;;;;1.98;100.00;100093.49;1786119;80;21856;-77
2021/11/26 17:16:15;;;;;;;48.40;28.73;;;;;;;1.99;100.00;100101.94;1786087;80;21286;-77
2021/11/26 17:19:21;;;;;;;45.63;26.57;;;;;;;1.99;100.00;100108.19;1784766;79;21183;-79
2021/11/26 17:22:28;;;;;;;55.40;28.10;;;;;;;2.01;100.00;100108.05;1784702;80;21341;-83
2021/11/26 17:25:36;;;;;;;46.15;28.15;;;;;;;2.03;100.00;100106.96;1784671;79;21306;-83
2021/11/26 17:28:41;;;;;;;49.75;26.62;;;;;;;2.03;100.00;100098.86;1784366;79;21190;-83
2021/11/26 17:31:47;;;;;;;39.55;24.02;;;;;;;2.04;100.00;100111.86;1786216;80;21310;-79
2021/11/26 17:34:51;;;;;;;38.88;21.90;;;;;;;2.05;100.00;100112.22;1786348;79;21309;-83
2021/11/26 17:37:57;;;;;;;37.45;22.50;;;;;;;2.05;100.00;100113.07;1784761;80;21846;-82
2021/11/26 17:41:03;;;;;;;40.48;23.80;;;;;;;2.04;100.00;100104.62;1786124;80;22091;-83
2021/11/26 17:44:10;;;;;;;44.85;23.10;;;;;;;2.03;100.00;100105.61;1785843;79;21306;-83
2021/11/26 17:47:18;;;;;;;39.67;22.40;;;;;;;2.03;100.00;100106.11;1786277;80;21148;-83
2021/11/26 17:50:24;;;;;;;39.80;24.00;;;;;;;2.03;100.00;100099.36;1785053;79;21334;-78
2021/11/26 17:53:31;;;;;;;46.20;26.80;;;;;;;2.01;100.00;100093.22;1786378;79;21309;-79
2021/11/26 17:56:36;;;;;;;50.67;28.20;;;;;;;1.99;100.00;100078.52;1786454;80;21274;-81
2021/11/26 17:59:41;;;;;;;51.42;28.32;;;;;;;1.96;100.00;100082.80;1785557;79;21816;-82
2021/11/26 18:02:46;;;;;;;54.27;28.45;;;;;;;1.90;100.00;100071.19;1786154;80;21357;-83
2021/11/26 18:06:00;;;;;;;55.33;30.92;;;;;;;1.83;100.00;100083.45;1784457;80;21286;-83
2021/11/26 18:09:03;;;;;;;46.75;26.12;;;;;;;1.78;100.00;100077.08;1785496;79;21183;-78
2021/11/26 18:12:15;;;;;;;48.17;27.48;;;;;;;1.76;100.00;100085.80;1786124;80;21207;-79
2021/11/26 18:15:21;;;;;;;55.67;30.48;;;;;;;1.76;100.00;100089.84;1785086;79;21321;-83
2021/11/26 18:18:30;;;;;;;59.77;28.98;;;;;;;1.77;100.00;100092.91;1785943;79;21278;-83
2021/11/26 18:21:35;;;;;;;;;;;;;;;1.77;100.00;100082.11;1788788;80;21803;-78
2021/11/26 18:24:40;;;;;;;51.48;28.10;;;;;;;1.77;100.00;100075.38;1785499;79;20301;-82
2021/11/26 18:27:47;;;;;;;54.03;30.82;;;;;;;1.78;100.00;100067.64;1785919;80;21855;-83
2021/11/26 18:30:53;;;;;;;53.58;26.48;;;;;;;1.79;100.00;100068.03;1779076;80;21250;-78
2021/11/26 18:34:00;;;;;;;54.75;30.00;;;;;;;1.79;100.00;100069.38;1780392;79;21765;-83
2021/11/26 18:37:12;;;;;;;49.35;27.60;;;;;;;1.82;100.00;100055.27;1780490;80;21274;-83